Fidato — PB5970 — position and weather

sailwx.info

Track history (hours):
 
Tides and Currents Weather Stations Pressure Air Temp Water Temp Dewpoint Dewpoint Depression Visibility Wind Speed Wind Dir Waves Ship Positions

Fidato

Last reported at 2016-Jun-30 14:12 UTC. Time now 2016-Jul-01 06:20 UTC.
Position N 48°57' E 008°11'.

Length 135 m; draft 2.5 m.

Type: Ship. MMSI: 244670975.

Date/timePositionNaut miles runAvg speedWind from/ knotsBaromVisibWave heightAir tempDewpointWater temp
2016-Jun-30 14:12N 48°57' E 008°11'4 5.3
2016-Jun-30 13:27N 48°59' E 008°16'5 5.6
2016-Jun-30 12:34N 49°04' E 008°19'6 5.7
2016-Jun-30 11:33N 49°09' E 008°22'6 5.6
2016-Jun-30 10:29N 49°15' E 008°25'4 4.8
2016-Jun-30 09:33N 49°19' E 008°28'  
2016-Jun-27 17:19N 50°41' E 007°11'4 4.4
2016-Jun-27 16:32N 50°44' E 007°07'5 4.3
2016-Jun-27 15:16N 50°48' E 007°02'3 3.6
2016-Jun-27 14:22N 50°51' E 006°59'6 2.9
2016-Jun-27 12:19N 50°56' E 006°58'15 3.1
2016-Jun-27 07:34N 51°10' E 006°48'4 3.5
2016-Jun-27 06:34N 51°12' E 006°44'3 2.5
2016-Jun-27 05:31N 51°15' E 006°46'15 1.3
2016-Jun-26 17:19N 51°30' E 006°42'54 4.2
2016-Jun-26 04:22N 51°55' E 005°25'3 3.4
2016-Jun-26 03:34N 51°57' E 005°22'0 0.0
2016-Jun-26 02:34N 51°57' E 005°22'0 0.0
2016-Jun-26 01:33N 51°57' E 005°22'0 0.0
2016-Jun-26 00:34N 51°57' E 005°22'0 0.0
2016-Jun-25 23:34N 51°57' E 005°22'0 0.0
2016-Jun-25 22:34N 51°57' E 005°22'0 0.0
2016-Jun-25 21:34N 51°57' E 005°22'4 3.7
2016-Jun-25 20:34N 51°59' E 005°16'7 7.1
2016-Jun-25 19:33N 52°03' E 005°07'7 6.8
2016-Jun-25 18:28N 52°09' E 005°01'6 6.8
2016-Jun-25 17:33N 52°15' E 005°01'6 6.5
2016-Jun-25 16:34N 52°21' E 004°58'4 4.1
2016-Jun-25 15:33N 52°24' E 004°53'2 2.3
2016-Jun-25 14:33N 52°24' E 004°49'0 0.0
2016-Jun-25 13:33N 52°24' E 004°49'0 0.0
2016-Jun-25 12:33N 52°24' E 004°49'0 0.0
2016-Jun-25 11:33N 52°24' E 004°49'0 0.0
2016-Jun-25 10:33N 52°24' E 004°49'0 0.0
2016-Jun-25 09:33N 52°24' E 004°49'0 0.4
2016-Jun-25 08:33N 52°24' E 004°50'0 0.0
2016-Jun-25 07:33N 52°24' E 004°50'0 0.0
2016-Jun-25 06:33N 52°24' E 004°50'0 0.0
2016-Jun-25 05:33N 52°24' E 004°50'0 0.0
2016-Jun-25 04:33N 52°24' E 004°50'0 0.0
2016-Jun-25 03:33N 52°24' E 004°50'0 0.0
2016-Jun-25 02:33N 52°24' E 004°50'0 0.0
2016-Jun-25 01:33N 52°24' E 004°50'0 0.0
2016-Jun-25 00:33N 52°24' E 004°50'0 0.0
2016-Jun-24 23:33N 52°24' E 004°50'0 0.0
2016-Jun-24 22:33N 52°24' E 004°50'0 0.0
2016-Jun-24 21:33N 52°24' E 004°50'0 0.0
2016-Jun-24 20:33N 52°24' E 004°50'0 0.0
2016-Jun-24 19:33N 52°24' E 004°50'0 0.0
2016-Jun-24 18:33N 52°24' E 004°50'0 0.0
2016-Jun-24 17:33N 52°24' E 004°50'4 4.2
2016-Jun-24 16:33N 52°23' E 004°56'1 0.9
2016-Jun-24 15:33N 52°22' E 004°57'0 0.0
2016-Jun-24 14:33N 52°22' E 004°57'8 7.9
2016-Jun-24 13:33N 52°15' E 005°01'8 7.8
2016-Jun-24 12:33N 52°07' E 005°04'3 3.2
2016-Jun-24 11:33N 52°04' E 005°06'0 0.0
2016-Jun-24 10:33N 52°04' E 005°06'0 0.0
2016-Jun-24 09:33N 52°04' E 005°06'2 2.1
2016-Jun-24 08:33N 52°02' E 005°07'8 7.9
2016-Jun-24 07:33N 51°58' E 005°18'3 0.3
2016-Jun-24 00:04N 51°57' E 005°22'0 0.1
2016-Jun-23 23:33N 51°57' E 005°22'44 8.6
2016-Jun-23 18:29N 51°41' E 006°28'8 8.4
2016-Jun-23 17:32N 51°35' E 006°36'40 7.4
2016-Jun-23 12:07N 50°57' E 006°58'5 9.5
2016-Jun-23 11:32N 50°53' E 007°03'8 8.1
2016-Jun-23 10:33N 50°45' E 007°06'  
Track history (hours):
 
Tides and Currents Weather Stations Pressure Air Temp Water Temp Dewpoint Dewpoint Depression Visibility Wind Speed Wind Dir Waves Ship Positions

Fidato

Last reported at 2016-Jun-30 14:12 UTC. Time now 2016-Jul-01 06:20 UTC.
Position N 48°57' E 008°11'.

Length 135 m; draft 2.5 m.

Type: Ship. MMSI: 244670975.

Date/timePositionNaut miles runAvg speedWind from/ knotsBaromVisibWave heightAir tempDewpointWater temp
2016-Jun-30 14:12N 48°57' E 008°11'4 5.3
2016-Jun-30 13:27N 48°59' E 008°16'5 5.6
2016-Jun-30 12:34N 49°04' E 008°19'6 5.7
2016-Jun-30 11:33N 49°09' E 008°22'6 5.6
2016-Jun-30 10:29N 49°15' E 008°25'4 4.8
2016-Jun-30 09:33N 49°19' E 008°28'  
2016-Jun-27 17:19N 50°41' E 007°11'4 4.4
2016-Jun-27 16:32N 50°44' E 007°07'5 4.3
2016-Jun-27 15:16N 50°48' E 007°02'3 3.6
2016-Jun-27 14:22N 50°51' E 006°59'6 2.9
2016-Jun-27 12:19N 50°56' E 006°58'15 3.1
2016-Jun-27 07:34N 51°10' E 006°48'4 3.5
2016-Jun-27 06:34N 51°12' E 006°44'3 2.5
2016-Jun-27 05:31N 51°15' E 006°46'15 1.3
2016-Jun-26 17:19N 51°30' E 006°42'54 4.2
2016-Jun-26 04:22N 51°55' E 005°25'3 3.4
2016-Jun-26 03:34N 51°57' E 005°22'0 0.0
2016-Jun-26 02:34N 51°57' E 005°22'0 0.0
2016-Jun-26 01:33N 51°57' E 005°22'0 0.0
2016-Jun-26 00:34N 51°57' E 005°22'0 0.0
2016-Jun-25 23:34N 51°57' E 005°22'0 0.0
2016-Jun-25 22:34N 51°57' E 005°22'0 0.0
2016-Jun-25 21:34N 51°57' E 005°22'4 3.7
2016-Jun-25 20:34N 51°59' E 005°16'7 7.1
2016-Jun-25 19:33N 52°03' E 005°07'7 6.8
2016-Jun-25 18:28N 52°09' E 005°01'6 6.8
2016-Jun-25 17:33N 52°15' E 005°01'6 6.5
2016-Jun-25 16:34N 52°21' E 004°58'4 4.1
2016-Jun-25 15:33N 52°24' E 004°53'2 2.3
2016-Jun-25 14:33N 52°24' E 004°49'0 0.0
2016-Jun-25 13:33N 52°24' E 004°49'0 0.0
2016-Jun-25 12:33N 52°24' E 004°49'0 0.0
2016-Jun-25 11:33N 52°24' E 004°49'0 0.0
2016-Jun-25 10:33N 52°24' E 004°49'0 0.0
2016-Jun-25 09:33N 52°24' E 004°49'0 0.4
2016-Jun-25 08:33N 52°24' E 004°50'0 0.0
2016-Jun-25 07:33N 52°24' E 004°50'0 0.0
2016-Jun-25 06:33N 52°24' E 004°50'0 0.0
2016-Jun-25 05:33N 52°24' E 004°50'0 0.0
2016-Jun-25 04:33N 52°24' E 004°50'0 0.0
2016-Jun-25 03:33N 52°24' E 004°50'0 0.0
2016-Jun-25 02:33N 52°24' E 004°50'0 0.0
2016-Jun-25 01:33N 52°24' E 004°50'0 0.0
2016-Jun-25 00:33N 52°24' E 004°50'0 0.0
2016-Jun-24 23:33N 52°24' E 004°50'0 0.0
2016-Jun-24 22:33N 52°24' E 004°50'0 0.0
2016-Jun-24 21:33N 52°24' E 004°50'0 0.0
2016-Jun-24 20:33N 52°24' E 004°50'0 0.0
2016-Jun-24 19:33N 52°24' E 004°50'0 0.0
2016-Jun-24 18:33N 52°24' E 004°50'0 0.0
2016-Jun-24 17:33N 52°24' E 004°50'4 4.2
2016-Jun-24 16:33N 52°23' E 004°56'1 0.9
2016-Jun-24 15:33N 52°22' E 004°57'0 0.0
2016-Jun-24 14:33N 52°22' E 004°57'8 7.9
2016-Jun-24 13:33N 52°15' E 005°01'8 7.8
2016-Jun-24 12:33N 52°07' E 005°04'3 3.2
2016-Jun-24 11:33N 52°04' E 005°06'0 0.0
2016-Jun-24 10:33N 52°04' E 005°06'0 0.0
2016-Jun-24 09:33N 52°04' E 005°06'2 2.1
2016-Jun-24 08:33N 52°02' E 005°07'8 7.9
2016-Jun-24 07:33N 51°58' E 005°18'3 0.3
2016-Jun-24 00:04N 51°57' E 005°22'0 0.1
2016-Jun-23 23:33N 51°57' E 005°22'44 8.6
2016-Jun-23 18:29N 51°41' E 006°28'8 8.4
2016-Jun-23 17:32N 51°35' E 006°36'40 7.4
2016-Jun-23 12:07N 50°57' E 006°58'5 9.5
2016-Jun-23 11:32N 50°53' E 007°03'8 8.1
2016-Jun-23 10:33N 50°45' E 007°06'  

Dump ship's entire track history